Lander, WY (82520)

8:33 PM MST on December 02, 2016 (GMT -0700)
| | Change Station

Elev -9999 ft 0.00 °N, 0.00 °E | Updated

Clear
Clear
18 °F
Feels Like 8 °F
N
7
Wind Variable Wind from WSW
Gusts mph

Today
High -- | Low -- °F
--% Chance of Precip.
Yesterday
High -- | Low -- °F
Precip. -- in
Pressure 30.23 in
Visibility 10.0 miles
Clouds Clear
Windchill 8 °F
Dew Point 7 °F
Humidity 63%
Rainfall --
Snow Depth Not available.
7:27 AM 4:41 PM
Waxing Crescent, 12% visible
METAR KLND 030253Z AUTO 13003KT 10SM CLR M07/M12 A3008 RMK AO2 SLP236 T10721117 58007
Pressure 30.23 in
Visibility 10.0 miles
Clouds Clear
Windchill 8 °F
Dew Point 7 °F
Humidity 63%
Rainfall --
Snow Depth Not available.
7:27 AM 4:41 PM
Waxing Crescent, 12% visible
METAR KLND 030253Z AUTO 13003KT 10SM CLR M07/M12 A3008 RMK AO2 SLP236 T10721117 58007

10-Day Weather Forecast

Almanac

Astronomy

Dec. 02, 2016 Rise Set
Actual Time
Civil Twilight
Nautical Twilight
Astronomical Twilight
Moon
Length of Visible Light
Length of Day
Tomorrow will be .
, % of the Moon is Illuminated

Today's Extremes

State Highs State Lows

Community

WunderPhotos

Upload Photos

1,955,406 photos uploaded!

WunderBlog® & News

Nearby

Air Quality

  Air Quality AQ Index Pollutant
Not available.

Snow Depth

Station Depth Elevation

Earthquake Activity

City Distance Mag. Time & Date
Minimum magnitude displayed is 2.5.

Coastal Water Temperatures

Place Temperature

Stations

Nearby Weather Stations

Station Location Temp. Windchill Dew Point Humidity Wind Precip. Elev Updated Type
                   

Watches & Warnings

There are currently no watches in effect.